Terminal Aerodrome Forecast
Issued by NWS

Current Version | Previous Version | Graphics & Text | Print | Product List | Glossary On
Versions: 1 2 3 4 5 6 7 8 9 10 11 12 13 14 15 16 17 18
189
FTUS41 KILN 242331
TAFLCK
TAF
KLCK 242331Z 2500/2524 21012G20KT P6SM FEW050 SCT250
     FM250200 17007KT P6SM FEW050 SCT250
     FM251500 18009KT P6SM BKN035 OVC200
     FM252200 14007KT P6SM BKN035 OVC200=

USA.gov is the U.S. government's official web portal to all federal, state and local government web resources and services.